Time;durP1;ratioP1;P1;durP2;ratioP2;P2;SDS_P1;SDS_P2;PMS_P1;PMS_P2;Temp;Humidity;BMP_temperature;BMP_pressure;BME280_temperature;BME280_humidity;BME280_pressure;Samples;Min_cycle;Max_cycle;Signal;HPM_P1;HPM_P2
2023/05/08 00:01:00;;;;;;;9.20;3.30;;;14.60;99.90;;;;;;5056493;28;20183;-72
2023/05/08 00:03:27;;;;;;;11.57;3.90;;;14.70;99.90;;;;;;5055783;28;20677;-72
2023/05/08 00:05:56;;;;;;;10.57;3.73;;;14.70;99.90;;;;;;5066560;28;20179;-72
2023/05/08 00:08:22;;;;;;;11.80;4.20;;;14.60;99.90;;;;;;5064829;28;20203;-72
2023/05/08 00:10:48;;;;;;;15.80;3.70;;;14.60;99.90;;;;;;5061144;28;20195;-72
2023/05/08 00:13:15;;;;;;;13.77;4.07;;;14.60;99.90;;;;;;5060565;28;20183;-72
2023/05/08 00:15:41;;;;;;;12.93;4.40;;;14.60;99.90;;;;;;5075137;28;20202;-72
2023/05/08 00:18:07;;;;;;;16.37;4.33;;;14.60;99.90;;;;;;5078996;28;20281;-72
2023/05/08 00:20:34;;;;;;;21.57;5.00;;;14.60;99.90;;;;;;5064021;28;20183;-72
2023/05/08 00:23:00;;;;;;;8.57;3.27;;;14.60;99.90;;;;;;5059614;28;20187;-72
2023/05/08 00:25:26;;;;;;;12.73;4.27;;;14.60;99.90;;;;;;5064501;28;20190;-72
2023/05/08 00:27:53;;;;;;;10.53;3.83;;;14.60;99.90;;;;;;5068513;28;20227;-72
2023/05/08 00:30:20;;;;;;;14.73;4.33;;;14.60;99.90;;;;;;5060707;28;20179;-72
2023/05/08 00:32:46;;;;;;;12.93;3.93;;;14.60;99.90;;;;;;5060493;28;20198;-72
2023/05/08 00:35:12;;;;;;;21.37;4.80;;;14.60;99.90;;;;;;5058567;28;20778;-72
2023/05/08 00:37:40;;;;;;;17.93;4.87;;;14.60;99.90;;;;;;5058623;28;20760;-72
2023/05/08 00:40:08;;;;;;;21.83;4.67;;;14.60;99.90;;;;;;5074354;28;20183;-72
2023/05/08 00:42:35;;;;;;;15.30;4.07;;;14.60;99.90;;;;;;5065617;28;20204;-72
2023/05/08 00:45:02;;;;;;;16.43;4.13;;;14.60;99.90;;;;;;5041450;28;20229;-72
2023/05/08 00:47:31;;;;;;;23.47;4.63;;;14.50;99.90;;;;;;5057293;28;20273;-72
2023/05/08 00:49:59;;;;;;;19.20;4.77;;;14.50;99.90;;;;;;5059607;28;20182;-72
2023/05/08 00:52:28;;;;;;;18.93;4.40;;;14.50;99.90;;;;;;5072803;28;20179;-72
2023/05/08 00:54:55;;;;;;;13.57;4.20;;;14.50;99.90;;;;;;5064488;28;20202;-72
2023/05/08 00:57:23;;;;;;;11.60;4.00;;;14.50;99.90;;;;;;5076766;28;20856;-72
2023/05/08 00:59:51;;;;;;;9.90;3.53;;;14.50;99.90;;;;;;5057953;28;20175;-72
2023/05/08 01:02:17;;;;;;;18.03;4.70;;;14.50;99.90;;;;;;5045564;28;20365;-72
2023/05/08 01:04:47;;;;;;;17.57;4.40;;;14.40;99.90;;;;;;5062274;28;20187;-72
2023/05/08 01:07:13;;;;;;;18.67;4.70;;;14.30;99.90;;;;;;5040750;28;20193;-72
2023/05/08 01:09:39;;;;;;;21.37;4.27;;;14.40;99.90;;;;;;5060699;28;20187;-71
2023/05/08 01:13:06;;;;;;;14.60;3.97;;;14.30;99.90;;;;;;5064524;28;20178;-71
2023/05/08 01:15:40;;;;;;;11.20;3.80;;;14.20;99.90;;;;;;5063611;28;22028;-71
2023/05/08 01:18:37;;;;;;;12.10;3.87;;;14.20;99.90;;;;;;5057032;28;20193;-71
2023/05/08 01:21:45;;;;;;;13.07;3.87;;;14.10;99.90;;;;;;5052112;28;20206;-71
2023/05/08 01:24:48;;;;;;;16.07;4.20;;;14.00;99.90;;;;;;5060382;28;20212;-71
2023/05/08 01:27:33;;;;;;;10.73;3.87;;;13.90;99.90;;;;;;5063626;28;20190;-71
2023/05/08 01:30:37;;;;;;;11.17;4.00;;;13.90;99.90;;;;;;5060943;28;20264;-72
2023/05/08 01:33:44;;;;;;;9.13;4.07;;;13.90;99.90;;;;;;5058778;28;20560;-72
2023/05/08 01:36:49;;;;;;;12.27;3.90;;;13.80;99.90;;;;;;5052153;28;20199;-72
2023/05/08 01:39:21;;;;;;;10.57;3.93;;;13.80;99.90;;;;;;5058888;28;20193;-72
2023/05/08 01:42:07;;;;;;;8.77;3.30;;;13.90;99.90;;;;;;5062415;28;20183;-71
2023/05/08 01:44:44;;;;;;;8.10;3.60;;;13.90;99.90;;;;;;5057795;28;20583;-71
2023/05/08 01:47:12;;;;;;;6.27;3.57;;;14.00;99.90;;;;;;5058689;28;20747;-71
2023/05/08 01:49:49;;;;;;;12.03;3.47;;;14.00;99.90;;;;;;5060721;28;20186;-71
2023/05/08 01:52:30;;;;;;;10.83;3.63;;;14.00;99.90;;;;;;5060379;28;20620;-71
2023/05/08 01:55:15;;;;;;;10.17;3.90;;;14.00;99.90;;;;;;5076453;28;20179;-71
2023/05/08 01:57:50;;;;;;;10.93;3.87;;;14.00;99.90;;;;;;5075747;28;20222;-71
2023/05/08 02:00:22;;;;;;;7.93;3.63;;;14.00;99.90;;;;;;5045422;28;20653;-71
2023/05/08 02:02:52;;;;;;;10.33;4.33;;;13.90;99.90;;;;;;5075175;28;20617;-71
2023/05/08 02:05:22;;;;;;;10.87;3.90;;;13.70;99.90;;;;;;5065281;28;20649;-71
2023/05/08 02:07:50;;;;;;;9.03;3.60;;;13.70;99.90;;;;;;5062782;28;20194;-71
2023/05/08 02:10:19;;;;;;;9.83;4.10;;;13.80;99.90;;;;;;5063212;28;20199;-71
2023/05/08 02:12:47;;;;;;;8.80;3.60;;;13.70;99.90;;;;;;5068506;28;20240;-71
2023/05/08 02:15:16;;;;;;;8.20;3.53;;;13.80;99.90;;;;;;5066691;28;20214;-71
2023/05/08 02:17:47;;;;;;;7.00;3.13;;;13.80;99.90;;;;;;5060682;28;20187;-71
2023/05/08 02:20:15;;;;;;;9.67;3.60;;;13.80;99.90;;;;;;5075893;28;20198;-71
2023/05/08 02:22:44;;;;;;;9.77;3.37;;;13.80;99.90;;;;;;5073153;28;20183;-71
2023/05/08 02:25:13;;;;;;;12.37;4.20;;;13.80;99.90;;;;;;5061402;28;20561;-71
2023/05/08 02:27:45;;;;;;;6.40;3.37;;;13.70;99.90;;;;;;5064825;28;20203;-71
2023/05/08 02:30:17;;;;;;;9.07;3.40;;;13.60;99.90;;;;;;5053978;28;20195;-71
2023/05/08 02:32:46;;;;;;;10.13;3.43;;;13.60;99.90;;;;;;5049730;28;20194;-71
2023/05/08 02:35:17;;;;;;;7.40;3.07;;;13.60;99.90;;;;;;5058210;28;20210;-71
2023/05/08 02:38:09;;;;;;;6.70;2.90;;;13.60;99.90;;;;;;5057961;28;20187;-71
2023/05/08 02:40:40;;;;;;;5.10;3.33;;;13.40;99.90;;;;;;5074173;28;20579;-71
2023/05/08 02:43:07;;;;;;;5.80;2.80;;;13.50;99.90;;;;;;5064836;28;20193;-71
2023/05/08 02:45:46;;;;;;;12.50;4.30;;;13.50;99.90;;;;;;5061368;28;20202;-71
2023/05/08 02:48:25;;;;;;;9.67;3.33;;;13.50;99.90;;;;;;5062289;28;20182;-71
2023/05/08 02:51:38;;;;;;;7.07;3.10;;;13.60;99.90;;;;;;5088320;28;20182;-71
2023/05/08 02:54:16;;;;;;;7.40;3.20;;;13.60;99.90;;;;;;5014971;28;20240;-71
2023/05/08 02:57:21;;;;;;;7.50;3.10;;;13.60;99.90;;;;;;5063103;28;20582;-71
2023/05/08 03:00:06;;;;;;;7.63;2.90;;;13.60;99.90;;;;;;5061444;28;20221;-71
2023/05/08 03:02:41;;;;;;;7.47;3.83;;;13.60;99.90;;;;;;5075443;28;20249;-71
2023/05/08 03:05:34;;;;;;;6.43;2.93;;;13.60;99.90;;;;;;5078000;28;20190;-71
2023/05/08 03:08:06;;;;;;;5.33;3.00;;;13.60;99.90;;;;;;5078270;28;20205;-71
2023/05/08 03:10:36;;;;;;;6.23;3.13;;;13.60;99.90;;;;;;5059309;28;20747;-71
2023/05/08 03:13:09;;;;;;;9.57;3.27;;;13.60;99.90;;;;;;5063307;28;20191;-71
2023/05/08 03:16:01;;;;;;;10.40;3.20;;;13.50;99.90;;;;;;5058096;28;20214;-71
2023/05/08 03:18:37;;;;;;;6.60;2.80;;;13.30;99.90;;;;;;5064306;28;20201;-71
2023/05/08 03:21:06;;;;;;;7.37;3.27;;;13.20;99.90;;;;;;5061691;28;20197;-71
2023/05/08 03:23:38;;;;;;;5.50;2.97;;;13.10;99.90;;;;;;5079201;28;20853;-71
2023/05/08 03:26:05;;;;;;;6.50;3.03;;;13.00;99.90;;;;;;5054567;28;20190;-71
2023/05/08 03:28:34;;;;;;;10.43;3.00;;;13.10;99.90;;;;;;5056506;28;20263;-72
2023/05/08 03:31:04;;;;;;;14.07;3.10;;;13.20;99.90;;;;;;5063953;28;20190;-71
2023/05/08 03:33:31;;;;;;;6.47;3.20;;;13.20;99.90;;;;;;5064451;28;20966;-71
2023/05/08 03:35:59;;;;;;;5.03;2.60;;;13.20;99.90;;;;;;5066722;28;20214;-71
2023/05/08 03:38:26;;;;;;;8.30;2.87;;;13.20;99.90;;;;;;5080326;28;20197;-71
2023/05/08 03:40:52;;;;;;;10.37;2.90;;;13.10;99.90;;;;;;5061855;28;20269;-71
2023/05/08 03:43:20;;;;;;;8.27;3.00;;;13.10;99.90;;;;;;5064110;28;20187;-71
2023/05/08 03:45:48;;;;;;;5.80;2.87;;;13.00;99.90;;;;;;5054089;28;20215;-71
2023/05/08 03:48:15;;;;;;;5.83;2.87;;;13.10;99.90;;;;;;5063146;28;20720;-71
2023/05/08 03:50:42;;;;;;;8.13;2.90;;;13.10;99.90;;;;;;5065433;28;20233;-71
2023/05/08 03:53:08;;;;;;;8.50;3.10;;;13.10;99.90;;;;;;5064796;28;20573;-71
2023/05/08 03:55:35;;;;;;;4.97;2.50;;;13.10;99.90;;;;;;5060584;28;20564;-71
2023/05/08 03:58:30;;;;;;;7.40;2.90;;;13.10;99.90;;;;;;5065749;28;20704;-71
2023/05/08 04:01:28;;;;;;;8.30;3.03;;;13.20;99.90;;;;;;5056681;28;20183;-71
2023/05/08 04:04:13;;;;;;;6.80;2.90;;;13.20;99.90;;;;;;5060255;28;20187;-71
2023/05/08 04:07:18;;;;;;;5.07;2.80;;;13.20;99.90;;;;;;5061633;28;20538;-71
2023/05/08 04:10:12;;;;;;;5.13;3.00;;;13.20;99.90;;;;;;5063347;28;20203;-71
2023/05/08 04:13:08;;;;;;;6.17;2.73;;;13.10;99.90;;;;;;5063000;28;20189;-71
2023/05/08 04:15:51;;;;;;;5.63;2.67;;;13.20;99.90;;;;;;5058084;28;20577;-71
2023/05/08 04:18:27;;;;;;;7.07;3.30;;;13.20;99.90;;;;;;5058154;28;20831;-71
2023/05/08 04:20:55;;;;;;;5.17;3.03;;;13.30;99.90;;;;;;5058741;28;21014;-71
2023/05/08 04:23:25;;;;;;;6.37;3.33;;;13.40;99.90;;;;;;5061675;28;20199;-71
2023/05/08 04:25:54;;;;;;;7.97;3.10;;;13.40;99.90;;;;;;5061122;28;20608;-71
2023/05/08 04:28:21;;;;;;;11.07;3.83;;;13.40;99.90;;;;;;5060152;28;20597;-71
2023/05/08 04:30:49;;;;;;;8.07;3.47;;;13.50;99.90;;;;;;5064236;28;20201;-71
2023/05/08 04:33:17;;;;;;;8.60;3.47;;;13.50;99.90;;;;;;5061311;28;20691;-71
2023/05/08 04:35:47;;;;;;;10.17;4.00;;;13.70;99.90;;;;;;5058397;28;20229;-71
2023/05/08 04:38:13;;;;;;;10.60;3.80;;;13.80;99.90;;;;;;5063519;28;20244;-71
2023/05/08 04:40:40;;;;;;;7.97;3.73;;;13.80;99.90;;;;;;5068006;28;20190;-71
2023/05/08 04:43:06;;;;;;;10.53;3.60;;;13.90;99.90;;;;;;5064390;28;20260;-71
2023/05/08 04:45:32;;;;;;;11.50;3.90;;;14.00;99.90;;;;;;5056327;28;20277;-71
2023/05/08 04:47:59;;;;;;;8.77;3.70;;;14.10;99.90;;;;;;5059406;28;20195;-71
2023/05/08 04:50:25;;;;;;;10.80;4.00;;;14.10;99.90;;;;;;5062730;28;20273;-71
2023/05/08 04:52:51;;;;;;;7.57;3.70;;;14.20;99.90;;;;;;5058617;28;20190;-71
2023/05/08 04:55:17;;;;;;;12.60;3.93;;;14.20;99.90;;;;;;5057177;28;20214;-71
2023/05/08 04:57:44;;;;;;;8.00;4.87;;;14.30;99.90;;;;;;5081278;28;20197;-71
2023/05/08 05:00:11;;;;;;;12.00;4.10;;;14.30;99.90;;;;;;5059802;28;20187;-71
2023/05/08 05:02:37;;;;;;;6.50;4.20;;;14.30;99.90;;;;;;5062168;28;20195;-71
2023/05/08 05:05:04;;;;;;;12.07;5.10;;;14.40;99.90;;;;;;5057253;28;20183;-71
2023/05/08 05:07:30;;;;;;;13.70;4.30;;;14.40;99.90;;;;;;5060662;28;20441;-71
2023/05/08 05:09:58;;;;;;;6.83;3.90;;;14.60;99.90;;;;;;5063327;28;20191;-71
2023/05/08 05:12:24;;;;;;;9.30;3.93;;;14.60;99.90;;;;;;5062928;28;20191;-71
2023/05/08 05:14:50;;;;;;;7.97;3.73;;;14.70;99.90;;;;;;5059639;28;20300;-71
2023/05/08 05:17:17;;;;;;;10.43;4.13;;;14.70;99.90;;;;;;5057282;28;20730;-71
2023/05/08 05:19:43;;;;;;;12.83;5.03;;;14.80;99.90;;;;;;5058809;28;20664;-71
2023/05/08 05:22:09;;;;;;;9.97;4.53;;;14.80;99.90;;;;;;5062119;28;20190;-71
2023/05/08 05:24:35;;;;;;;8.73;4.20;;;14.90;99.90;;;;;;5058700;28;20256;-71
2023/05/08 05:27:03;;;;;;;10.47;4.57;;;14.90;99.90;;;;;;5082877;28;20290;-71
2023/05/08 05:29:29;;;;;;;10.00;4.40;;;15.00;99.90;;;;;;5063586;28;20197;-71
2023/05/08 05:31:55;;;;;;;9.70;4.63;;;15.00;99.90;;;;;;5061085;28;20224;-71
2023/05/08 05:34:22;;;;;;;9.03;4.00;;;15.00;99.90;;;;;;5063972;28;20191;-71
2023/05/08 05:36:48;;;;;;;13.87;4.40;;;15.10;99.90;;;;;;5059226;28;20584;-71
2023/05/08 05:39:14;;;;;;;7.20;3.63;;;15.10;99.90;;;;;;5064952;28;20197;-71
2023/05/08 05:41:43;;;;;;;15.53;4.63;;;15.20;99.90;;;;;;5061691;28;20203;-71
2023/05/08 05:44:10;;;;;;;12.57;3.97;;;15.20;99.90;;;;;;5075784;28;20984;-71
2023/05/08 05:46:36;;;;;;;11.10;4.23;;;15.30;99.90;;;;;;5062827;28;20557;-71
2023/05/08 05:49:02;;;;;;;12.30;3.83;;;15.40;99.90;;;;;;5062306;28;20190;-71
2023/05/08 05:51:28;;;;;;;9.60;3.97;;;15.40;99.90;;;;;;5044934;28;20197;-71
2023/05/08 05:53:55;;;;;;;9.30;3.70;;;15.50;99.90;;;;;;5059041;28;20221;-71
2023/05/08 05:56:22;;;;;;;10.90;4.43;;;15.50;99.90;;;;;;5080218;28;20246;-71
2023/05/08 05:58:48;;;;;;;8.43;3.77;;;15.50;99.90;;;;;;5063886;28;20275;-71
2023/05/08 06:01:14;;;;;;;10.50;3.73;;;15.60;99.90;;;;;;5064486;28;20630;-71
2023/05/08 06:03:41;;;;;;;8.00;3.60;;;15.60;99.90;;;;;;5064496;28;20183;-71
2023/05/08 06:06:07;;;;;;;7.13;3.17;;;15.60;99.90;;;;;;5061194;28;20187;-71
2023/05/08 06:08:33;;;;;;;5.67;3.07;;;15.60;99.90;;;;;;5064607;28;20422;-71
2023/05/08 06:11:00;;;;;;;7.63;3.37;;;15.60;99.90;;;;;;5063155;28;20194;-71
2023/05/08 06:13:26;;;;;;;8.87;2.90;;;15.60;99.90;;;;;;5064031;28;20187;-71
2023/05/08 06:15:57;;;;;;;9.10;3.00;;;15.70;99.90;;;;;;5059649;28;20678;-71
2023/05/08 06:18:23;;;;;;;6.87;2.57;;;15.70;99.90;;;;;;5079372;28;20783;-71
2023/05/08 06:20:57;;;;;;;11.30;3.30;;;15.80;99.90;;;;;;5056764;28;20594;-71
2023/05/08 06:23:24;;;;;;;9.10;3.00;;;15.90;99.90;;;;;;5069549;28;20635;-71
2023/05/08 06:25:51;;;;;;;10.70;3.27;;;15.90;99.90;;;;;;5083746;28;20218;-71
2023/05/08 06:28:17;;;;;;;11.17;3.10;;;16.00;99.90;;;;;;5094576;28;20996;-71
2023/05/08 06:30:44;;;;;;;8.27;2.53;;;16.10;99.90;;;;;;5061801;28;20189;-71
2023/05/08 06:33:11;;;;;;;6.20;2.90;;;16.20;99.90;;;;;;5061542;28;20218;-71
2023/05/08 06:35:37;;;;;;;8.37;3.03;;;16.30;99.90;;;;;;5095483;28;20248;-71
2023/05/08 06:38:03;;;;;;;8.77;2.63;;;16.40;99.90;;;;;;5059969;28;20175;-71
2023/05/08 06:40:30;;;;;;;7.63;3.30;;;16.40;99.90;;;;;;5045732;28;20234;-71
2023/05/08 06:42:56;;;;;;;11.03;3.00;;;16.50;99.90;;;;;;5078551;28;20183;-71
2023/05/08 06:45:22;;;;;;;7.27;2.53;;;16.60;99.90;;;;;;5088280;28;20195;-71
2023/05/08 06:47:48;;;;;;;5.50;2.43;;;16.70;99.90;;;;;;5048310;28;20314;-71
2023/05/08 06:50:14;;;;;;;7.10;2.43;;;16.80;99.90;;;;;;5060966;28;20183;-71
2023/05/08 06:52:41;;;;;;;8.70;2.90;;;16.80;99.90;;;;;;5064956;28;20738;-71
2023/05/08 06:55:08;;;;;;;5.77;2.57;;;16.90;99.90;;;;;;5058526;28;20653;-72
2023/05/08 06:57:34;;;;;;;9.03;3.30;;;16.90;99.90;;;;;;5066195;28;20206;-71
2023/05/08 07:00:00;;;;;;;8.70;2.87;;;17.10;99.90;;;;;;5076307;28;20272;-71
2023/05/08 07:02:26;;;;;;;13.67;3.00;;;17.10;99.90;;;;;;5064519;28;20218;-71
2023/05/08 07:04:53;;;;;;;9.40;2.80;;;17.20;99.90;;;;;;5060648;28;20174;-71
2023/05/08 07:07:19;;;;;;;4.80;2.17;;;17.30;99.90;;;;;;5061161;28;21037;-71
2023/05/08 07:09:45;;;;;;;7.03;2.50;;;17.30;99.90;;;;;;5058244;28;20187;-71
2023/05/08 07:12:11;;;;;;;8.87;2.80;;;17.40;99.90;;;;;;5059494;28;20599;-71
2023/05/08 07:14:37;;;;;;;9.10;2.87;;;17.50;99.90;;;;;;5064105;28;20514;-71
2023/05/08 07:17:07;;;;;;;8.60;2.47;;;17.60;99.90;;;;;;5060578;28;20286;-71
2023/05/08 07:19:35;;;;;;;10.53;2.70;;;17.60;99.90;;;;;;5060223;28;20997;-71
2023/05/08 07:22:02;;;;;;;10.67;2.60;;;17.70;99.90;;;;;;5055438;28;20658;-71
2023/05/08 07:24:28;;;;;;;7.90;2.53;;;17.80;99.90;;;;;;5059788;28;20278;-71
2023/05/08 07:26:54;;;;;;;9.73;2.97;;;17.90;99.90;;;;;;5047545;28;20728;-71
2023/05/08 07:29:21;;;;;;;6.00;2.50;;;17.90;99.90;;;;;;5056371;28;20203;-71
2023/05/08 07:31:47;;;;;;;6.50;2.40;;;18.00;99.90;;;;;;5054790;28;20191;-71
2023/05/08 07:34:14;;;;;;;6.57;2.60;;;18.00;99.90;;;;;;5044700;28;20269;-71
2023/05/08 07:36:40;;;;;;;8.03;2.43;;;18.10;99.90;;;;;;5052929;28;20198;-71
2023/05/08 07:39:06;;;;;;;7.03;2.17;;;18.10;99.90;;;;;;5064474;28;20255;-71
2023/05/08 07:41:32;;;;;;;7.23;2.43;;;18.10;99.90;;;;;;5066758;28;20206;-71
2023/05/08 07:43:59;;;;;;;5.37;2.13;;;18.10;99.90;;;;;;5077109;28;20291;-71
2023/05/08 07:46:25;;;;;;;7.77;2.50;;;18.10;99.90;;;;;;5057996;28;20294;-71
2023/05/08 07:48:51;;;;;;;5.40;2.33;;;18.10;99.90;;;;;;5066100;28;20218;-71
2023/05/08 07:51:17;;;;;;;4.00;2.17;;;18.20;99.90;;;;;;5062424;28;20849;-71
2023/05/08 07:53:43;;;;;;;7.90;1.93;;;18.30;99.90;;;;;;5062410;28;20190;-71
2023/05/08 07:56:09;;;;;;;7.70;2.20;;;18.30;99.90;;;;;;5059348;28;20249;-71
2023/05/08 07:58:36;;;;;;;5.47;2.10;;;18.40;99.90;;;;;;5068272;28;20203;-71
2023/05/08 08:01:02;;;;;;;5.80;2.40;;;18.40;99.90;;;;;;5058887;28;21129;-71
2023/05/08 08:03:28;;;;;;;5.57;2.23;;;18.50;99.90;;;;;;5055540;28;20244;-71
2023/05/08 08:05:54;;;;;;;8.43;2.37;;;18.60;99.90;;;;;;5054280;28;20237;-71
2023/05/08 08:08:21;;;;;;;5.83;2.30;;;18.60;99.90;;;;;;5058512;28;20186;-71
2023/05/08 08:10:47;;;;;;;7.40;2.20;;;18.70;99.90;;;;;;5056497;28;20211;-71
2023/05/08 08:13:13;;;;;;;6.27;2.50;;;18.80;99.90;;;;;;5053574;28;20184;-71
2023/05/08 08:15:40;;;;;;;7.97;2.30;;;18.80;99.90;;;;;;5040723;28;20230;-71
2023/05/08 08:18:06;;;;;;;7.30;2.63;;;19.00;99.90;;;;;;5074895;28;20175;-71
2023/05/08 08:20:32;;;;;;;5.37;2.13;;;19.10;99.90;;;;;;5048260;28;20182;-71
2023/05/08 08:22:59;;;;;;;6.10;2.20;;;19.20;99.90;;;;;;5064078;28;20877;-71
2023/05/08 08:25:26;;;;;;;5.03;1.93;;;19.20;99.90;;;;;;5074786;28;20195;-71
2023/05/08 08:27:54;;;;;;;7.77;2.40;;;19.30;99.90;;;;;;5057164;28;20211;-71
2023/05/08 08:30:20;;;;;;;4.70;2.00;;;19.30;99.90;;;;;;5055574;28;20218;-71
2023/05/08 08:32:46;;;;;;;6.93;2.40;;;19.40;99.90;;;;;;5059875;28;20271;-71
2023/05/08 08:35:13;;;;;;;8.57;2.60;;;19.40;99.90;;;;;;5061906;28;20198;-71
2023/05/08 08:37:39;;;;;;;5.37;2.20;;;19.50;99.90;;;;;;5043635;28;20210;-71
2023/05/08 08:40:06;;;;;;;6.03;2.13;;;19.50;99.90;;;;;;5062569;28;20277;-71
2023/05/08 08:42:33;;;;;;;10.67;2.27;;;19.60;99.90;;;;;;5069413;28;20840;-71
2023/05/08 08:45:00;;;;;;;5.33;2.23;;;19.60;99.90;;;;;;5058515;28;20338;-72
2023/05/08 08:47:40;;;;;;;7.07;2.20;;;19.80;99.90;;;;;;5052722;28;20186;-71
2023/05/08 08:50:09;;;;;;;6.30;2.27;;;19.90;99.90;;;;;;5057308;28;20190;-71
2023/05/08 08:53:00;;;;;;;7.20;2.40;;;20.00;99.90;;;;;;5062583;28;20756;-71
2023/05/08 08:55:26;;;;;;;9.43;2.87;;;19.90;99.90;;;;;;5073965;28;20706;-71
2023/05/08 08:58:17;;;;;;;7.47;2.60;;;20.00;99.90;;;;;;5055241;28;20194;-71
2023/05/08 09:00:46;;;;;;;9.93;2.77;;;20.00;99.90;;;;;;5081742;28;20304;-71
2023/05/08 09:03:13;;;;;;;8.93;2.37;;;20.10;99.90;;;;;;5069424;28;20596;-71
2023/05/08 09:05:40;;;;;;;8.73;2.50;;;20.20;99.90;;;;;;5066507;28;20679;-71
2023/05/08 09:08:07;;;;;;;6.73;2.20;;;20.20;99.90;;;;;;5062231;28;20286;-71
2023/05/08 09:10:35;;;;;;;5.60;1.70;;;20.30;99.90;;;;;;5081985;28;20560;-71
2023/05/08 09:13:03;;;;;;;6.20;2.23;;;20.50;99.90;;;;;;5064053;28;20190;-71
2023/05/08 09:15:32;;;;;;;6.50;2.43;;;20.60;99.90;;;;;;5074525;28;20708;-71
2023/05/08 09:18:01;;;;;;;5.67;1.90;;;20.70;99.90;;;;;;5063439;28;21390;-71
2023/05/08 09:20:28;;;;;;;6.30;2.17;;;20.70;99.90;;;;;;5062985;28;20204;-71
2023/05/08 09:23:00;;;;;;;4.43;2.10;;;20.80;99.90;;;;;;5061454;28;20190;-71
2023/05/08 09:25:40;;;;;;;5.13;2.13;;;20.80;99.90;;;;;;5072461;28;20198;-71
2023/05/08 09:28:21;;;;;;;4.67;2.20;;;20.90;99.90;;;;;;5062789;28;20200;-71
2023/05/08 09:30:58;;;;;;;6.33;2.00;;;20.90;99.90;;;;;;5051780;28;20293;-71
2023/05/08 09:33:28;;;;;;;5.90;2.30;;;20.90;99.90;;;;;;5061437;28;20199;-71
2023/05/08 09:35:56;;;;;;;6.13;2.17;;;21.00;99.90;;;;;;5063565;28;20219;-71
2023/05/08 09:38:40;;;;;;;5.30;1.97;;;21.20;99.90;;;;;;5051562;28;20202;-71
2023/05/08 09:41:08;;;;;;;5.83;2.50;;;21.30;99.90;;;;;;5063353;28;20602;-71
2023/05/08 09:43:35;;;;;;;5.57;2.03;;;21.50;99.90;;;;;;5063876;28;20194;-71
2023/05/08 09:46:24;;;;;;;8.93;2.07;;;21.50;99.90;;;;;;5060321;28;20213;-72
2023/05/08 09:48:53;;;;;;;5.10;2.20;;;21.50;99.90;;;;;;5060223;28;20657;-72
2023/05/08 09:51:20;;;;;;;8.37;2.10;;;21.40;99.90;;;;;;5058404;28;20679;-71
2023/05/08 09:53:53;;;;;;;6.07;1.77;;;21.60;99.90;;;;;;5059478;28;20271;-71
2023/05/08 09:56:34;;;;;;;4.23;2.07;;;21.60;99.90;;;;;;5061569;28;20227;-72
2023/05/08 09:59:03;;;;;;;4.20;2.07;;;21.60;99.90;;;;;;5059190;28;20187;-72
2023/05/08 10:01:35;;;;;;;9.77;2.80;;;21.50;99.90;;;;;;5075141;28;20206;-71
2023/05/08 10:04:04;;;;;;;4.13;2.03;;;21.50;99.90;;;;;;5068931;28;20244;-71
2023/05/08 10:06:31;;;;;;;5.43;2.13;;;21.40;99.90;;;;;;5051788;28;20785;-72
2023/05/08 10:09:26;;;;;;;8.57;2.37;;;21.50;99.90;;;;;;5066849;28;20190;-71
2023/05/08 10:11:54;;;;;;;4.37;2.10;;;21.50;99.90;;;;;;5059112;28;20207;-72
2023/05/08 10:14:22;;;;;;;6.17;2.27;;;21.40;99.90;;;;;;5075162;28;20198;-72
2023/05/08 10:16:51;;;;;;;5.77;2.30;;;21.20;99.90;;;;;;5061343;28;20693;-71
2023/05/08 10:19:23;;;;;;;2.60;1.50;;;21.40;99.90;;;;;;5074326;28;20969;-72
2023/05/08 10:21:52;;;;;;;6.53;2.40;;;21.60;99.90;;;;;;5064118;28;20178;-72
2023/05/08 10:24:27;;;;;;;6.73;2.10;;;21.70;99.90;;;;;;5064084;28;20631;-72
2023/05/08 10:27:26;;;;;;;6.80;2.13;;;21.70;99.90;;;;;;5060997;28;20190;-71
2023/05/08 10:29:55;;;;;;;11.27;2.60;;;21.70;99.90;;;;;;5042805;28;20211;-71
2023/05/08 10:32:24;;;;;;;5.23;2.20;;;21.70;99.90;;;;;;5064812;28;20192;-72
2023/05/08 10:34:57;;;;;;;5.00;2.40;;;21.60;99.90;;;;;;5065552;28;20215;-72
2023/05/08 10:37:24;;;;;;;5.70;2.70;;;21.50;99.90;;;;;;5058802;28;20990;-72
2023/05/08 10:39:54;;;;;;;6.80;2.43;;;21.60;99.90;;;;;;5063524;28;20247;-72
2023/05/08 10:42:21;;;;;;;7.03;2.73;;;21.70;99.90;;;;;;5061729;28;20244;-71
2023/05/08 10:44:48;;;;;;;6.27;2.60;;;21.60;99.90;;;;;;5084144;28;20195;-71
2023/05/08 10:47:29;;;;;;;4.97;2.40;;;21.50;99.90;;;;;;5057682;28;20253;-71
2023/05/08 10:50:29;;;;;;;4.73;2.40;;;21.50;99.90;;;;;;5060286;28;20792;-71
2023/05/08 10:53:29;;;;;;;4.67;2.47;;;21.50;99.90;;;;;;5059592;28;20209;-71
2023/05/08 10:55:56;;;;;;;6.00;2.63;;;21.60;99.90;;;;;;5063200;28;20297;-71
2023/05/08 10:58:34;;;;;;;5.13;2.50;;;21.50;99.90;;;;;;5074601;28;20191;-71
2023/05/08 11:01:03;;;;;;;8.00;2.70;;;21.50;99.90;;;;;;5054332;28;20604;-71
2023/05/08 11:03:32;;;;;;;6.73;2.63;;;21.50;99.90;;;;;;5061966;28;20670;-72
2023/05/08 11:06:00;;;;;;;4.87;2.50;;;21.40;99.90;;;;;;5067997;28;20420;-71
2023/05/08 11:08:30;;;;;;;4.57;2.00;;;21.30;99.90;;;;;;5042120;28;20195;-73
2023/05/08 11:10:59;;;;;;;9.37;2.77;;;21.40;99.90;;;;;;5064295;28;20214;-71
2023/05/08 11:13:39;;;;;;;5.37;2.83;;;21.50;99.90;;;;;;5062936;28;20206;-71
2023/05/08 11:16:06;;;;;;;5.60;2.50;;;21.50;99.90;;;;;;5056273;28;20245;-71
2023/05/08 11:18:33;;;;;;;7.47;2.80;;;21.40;99.90;;;;;;5064248;28;20199;-71
2023/05/08 11:21:05;;;;;;;5.20;2.87;;;21.50;99.90;;;;;;5059901;28;20281;-71
2023/05/08 11:23:35;;;;;;;5.47;3.03;;;21.50;99.90;;;;;;5060459;28;20209;-71
2023/05/08 11:26:13;;;;;;;6.33;3.17;;;21.40;99.90;;;;;;5056837;28;20190;-71
2023/05/08 11:28:56;;;;;;;8.93;3.67;;;21.40;99.90;;;;;;5056142;28;20539;-71
2023/05/08 11:31:23;;;;;;;6.50;3.80;;;21.40;99.90;;;;;;5057912;28;20340;-71
2023/05/08 11:33:50;;;;;;;7.53;3.47;;;21.20;99.90;;;;;;5058581;28;20817;-71
2023/05/08 11:36:21;;;;;;;8.67;3.60;;;21.20;99.90;;;;;;5057837;28;20223;-71
2023/05/08 11:39:14;;;;;;;8.83;3.17;;;21.20;99.90;;;;;;5063675;28;20194;-71
2023/05/08 11:41:40;;;;;;;6.07;3.07;;;21.30;99.90;;;;;;5036148;28;20225;-71
2023/05/08 11:44:20;;;;;;;7.03;3.30;;;21.30;99.90;;;;;;5055416;28;20181;-71
2023/05/08 11:46:54;;;;;;;8.83;3.40;;;21.30;99.90;;;;;;5045355;28;20770;-71
2023/05/08 11:49:25;;;;;;;6.23;3.20;;;21.30;99.90;;;;;;5060069;28;20923;-71
2023/05/08 11:51:56;;;;;;;7.33;3.10;;;21.20;99.90;;;;;;5064550;28;20660;-71
2023/05/08 11:54:24;;;;;;;7.60;3.23;;;21.20;99.90;;;;;;5047704;28;20209;-71
2023/05/08 11:56:56;;;;;;;8.23;3.90;;;21.20;99.90;;;;;;5055702;28;20215;-71
2023/05/08 11:59:22;;;;;;;8.37;3.50;;;21.20;99.90;;;;;;5056691;28;20191;-71
2023/05/08 12:01:50;;;;;;;6.83;3.40;;;21.30;99.90;;;;;;5050369;28;20286;-71
2023/05/08 12:04:17;;;;;;;5.83;3.37;;;21.30;99.90;;;;;;5058301;28;20194;-71
2023/05/08 12:06:43;;;;;;;6.07;3.43;;;21.20;99.90;;;;;;5057450;28;20676;-71
2023/05/08 12:09:17;;;;;;;5.40;3.30;;;21.00;99.90;;;;;;5036656;28;20197;-71
2023/05/08 12:11:44;;;;;;;7.20;3.70;;;21.20;99.90;;;;;;5044738;28;20660;-72
2023/05/08 12:14:17;;;;;;;7.23;3.60;;;21.30;99.90;;;;;;5043545;28;21068;-71
2023/05/08 12:16:43;;;;;;;7.27;3.70;;;21.50;99.90;;;;;;5057943;28;20222;-71
2023/05/08 12:19:12;;;;;;;8.33;3.70;;;21.40;99.90;;;;;;5053471;28;20182;-71
2023/05/08 12:21:45;;;;;;;9.00;3.50;;;21.40;99.90;;;;;;5057917;28;20271;-71
2023/05/08 12:24:13;;;;;;;6.43;3.67;;;21.50;99.90;;;;;;5059845;28;20194;-71
2023/05/08 12:26:39;;;;;;;7.60;3.90;;;21.40;99.90;;;;;;5065128;28;20236;-71
2023/05/08 12:29:07;;;;;;;6.43;3.50;;;21.50;99.90;;;;;;5058527;28;20187;-71
2023/05/08 12:31:37;;;;;;;10.53;4.70;;;21.60;99.90;;;;;;5061768;28;20190;-71
2023/05/08 12:34:05;;;;;;;8.50;4.17;;;21.60;99.90;;;;;;5062416;28;20277;-71
2023/05/08 12:36:37;;;;;;;10.63;3.83;;;21.50;99.90;;;;;;5062643;28;20206;-71
2023/05/08 12:39:16;;;;;;;10.67;3.90;;;21.50;99.90;;;;;;5053618;28;20194;-71
2023/05/08 12:41:50;;;;;;;11.03;4.60;;;21.60;99.90;;;;;;5085214;28;20186;-71
2023/05/08 12:44:25;;;;;;;6.43;4.30;;;21.50;99.90;;;;;;5060710;28;20708;-71
2023/05/08 12:47:00;;;;;;;6.30;3.90;;;21.60;99.90;;;;;;5054411;28;20191;-71
2023/05/08 12:49:29;;;;;;;6.83;4.20;;;21.60;99.90;;;;;;5066844;28;20303;-71
2023/05/08 12:52:11;;;;;;;10.10;4.23;;;21.50;99.90;;;;;;5073988;28;20398;-71
2023/05/08 12:54:47;;;;;;;6.17;3.67;;;21.50;99.90;;;;;;5057720;28;20237;-71
2023/05/08 12:57:16;;;;;;;6.10;3.90;;;21.60;99.90;;;;;;5056879;28;20209;-71
2023/05/08 12:59:45;;;;;;;8.60;3.60;;;21.50;99.90;;;;;;5064519;28;20191;-71
2023/05/08 13:02:18;;;;;;;7.93;4.20;;;21.50;99.90;;;;;;5053521;28;20333;-71
2023/05/08 13:04:44;;;;;;;6.20;4.23;;;21.50;99.90;;;;;;5060522;28;20190;-71